Terminal Aerodrome Forecast
Issued by NWS Upton, NY

Current Version | Previous Version | Text Only | Print | Product List | Glossary On
Versions: 1 2 3 4 5 6 7 8 9 10 11 12 13 14 15 16 17 18 19 20 21 22 23 24 25 26 27 28 29
000 FTUS41 KOKX 310015 RRA TAFBDR TAF KBDR 310015Z 3100/3124 21008KT P6SM SCT009 BKN130 TEMPO 3100/3102 BKN009 FM310300 VRB04KT 4SM BR SCT010 BKN040 TEMPO 3108/3111 2SM BR BKN010 FM311200 34006KT P6SM SCT090 BKN250 FM311600 22008KT P6SM FEW040 SCT250=

USA.gov is the U.S. government's official web portal to all federal, state and local government web resources and services.